Time;durP1;ratioP1;P1;durP2;ratioP2;P2;SDS_P1;SDS_P2;PMS_P1;PMS_P2;Temp;Humidity;BMP_temperature;BMP_pressure;BME280_temperature;BME280_humidity;BME280_pressure;Samples;Min_cycle;Max_cycle;Signal;HPM_P1;HPM_P2
2022/01/11 00:05:43;;;;;;;166.17;97.10;;;-0.30;99.90;;;;;;4826698;29;20107;-95
2022/01/11 00:34:46;;;;;;;171.25;91.22;;;-0.40;99.90;;;;;;4836410;29;20094;-96
2022/01/11 02:40:57;;;;;;;;;;;;;;;;;;;;;
2022/01/11 03:33:32;;;;;;;194.57;89.07;;;-0.20;99.90;;;;;;4931781;28;20054;-94
2022/01/11 03:41:40;;;;;;;;;;;;;;;;;;;;;
2022/01/11 03:53:38;;;;;;;;;;;;;;;;;;;;;
2022/01/11 04:12:08;;;;;;;216.55;102.13;;;-0.10;99.90;;;;;;4950620;29;20049;-95
2022/01/11 04:34:30;;;;;;;;;;;;;;;;;;;;;
2022/01/11 04:42:54;;;;;;;;;;;;;;;;;;;;;
2022/01/11 04:53:59;;;;;;;;;;;;;;;;;;;;;
2022/01/11 07:58:23;;;;;;;71.73;47.20;;;0.00;99.90;;;;;;4875713;29;20052;-94
2022/01/11 08:02:00;;;;;;;79.90;50.60;;;0.00;99.90;;;;;;4884792;29;20088;-94
2022/01/11 08:05:21;;;;;;;69.10;46.00;;;0.00;99.90;;;;;;4863334;29;20060;-94
2022/01/11 08:08:44;;;;;;;70.50;47.50;;;0.00;99.90;;;;;;4841614;29;20054;-94
2022/01/11 08:11:55;;;;;;;68.70;46.07;;;0.00;99.90;;;;;;4854747;29;20182;-95
2022/01/11 08:15:44;;;;;;;;;;;;;;;;;;;;;
2022/01/11 08:19:28;;;;;;;;;;;;;;;;;;;;;
2022/01/11 08:46:10;;;;;;;59.27;41.43;;;0.10;99.90;;;;;;4838028;29;20064;-96
2022/01/11 09:00:09;;;;;;;;;;;;;;;;;;;;;
2022/01/11 09:10:44;;;;;;;;;;;;;;;;;;;;;
2022/01/11 09:24:59;;;;;;;54.20;39.13;;;0.00;99.90;;;;;;4952716;29;20110;-94
2022/01/11 09:28:16;;;;;;;51.13;37.25;;;0.20;99.90;;;;;;4899972;29;20056;-95
2022/01/11 09:39:52;;;;;;;;;;;;;;;;;;;;;
2022/01/11 11:32:22;;;;;;;39.07;30.53;;;1.30;99.90;;;;;;4948518;28;20081;-96
2022/01/11 11:36:37;;;;;;;38.47;31.33;;;1.50;99.90;;;;;;4997446;28;20066;-96
2022/01/11 11:39:45;;;;;;;38.20;31.07;;;1.60;99.90;;;;;;4952792;29;20065;-96
2022/01/11 11:43:17;;;;;;;;;;;;;;;;;;;;;
2022/01/11 11:46:50;;;;;;;38.47;28.87;;;2.00;99.90;;;;;;4968859;28;20145;-96
2022/01/11 13:05:54;;;;;;;;;;;;;;;;;;;;;
2022/01/11 13:21:31;;;;;;;;;;;;;;;;;;;;;
2022/01/11 13:25:25;;;;;;;27.03;19.60;;;3.90;99.90;;;;;;4805623;29;20053;-95
2022/01/11 14:20:44;;;;;;;;;;;;;;;;;;;;;
2022/01/11 15:01:21;;;;;;;;;;;;;;;;;;;;;
2022/01/11 15:19:58;;;;;;;31.20;21.17;;;3.90;99.90;;;;;;4711139;30;20064;-96
2022/01/11 15:27:25;;;;;;;;;;;;;;;;;;;;;
2022/01/11 15:46:05;;;;;;;31.13;22.00;;;3.80;99.90;;;;;;4774319;29;20052;-94
2022/01/11 16:00:04;;;;;;;29.43;21.33;;;3.90;99.90;;;;;;4788604;29;20146;-95
2022/01/11 16:17:54;;;;;;;28.42;20.83;;;3.90;99.90;;;;;;4939334;22;20061;-76
2022/01/11 16:20:20;;;;;;;29.77;20.10;;;3.90;99.90;;;;;;5000810;28;20079;-77
2022/01/11 16:22:48;;;;;;;28.87;20.07;;;3.90;99.90;;;;;;5007113;28;20073;-76
2022/01/11 16:25:14;;;;;;;30.17;20.13;;;4.00;99.90;;;;;;5023909;28;20049;-76
2022/01/11 16:27:41;;;;;;;33.87;20.37;;;4.00;99.90;;;;;;5005555;28;20048;-77
2022/01/11 16:30:25;;;;;;;29.73;20.20;;;4.00;99.90;;;;;;4989856;28;20075;-76
2022/01/11 16:32:52;;;;;;;30.43;20.73;;;4.00;99.90;;;;;;5023466;28;20596;-76
2022/01/11 16:35:18;;;;;;;30.70;20.83;;;4.00;99.90;;;;;;5004996;28;20071;-76
2022/01/11 16:37:44;;;;;;;29.77;20.90;;;4.00;99.90;;;;;;5027358;28;20060;-76
2022/01/11 16:40:20;;;;;;;26.97;20.30;;;4.00;99.90;;;;;;5030029;28;20037;-77
2022/01/11 16:42:48;;;;;;;31.40;22.60;;;4.00;99.90;;;;;;5011605;28;20049;-77
2022/01/11 16:45:19;;;;;;;29.67;20.97;;;4.00;99.90;;;;;;4992928;28;20072;-76
2022/01/11 16:47:48;;;;;;;31.73;21.30;;;3.90;99.90;;;;;;4992822;28;20055;-77
2022/01/11 16:50:14;;;;;;;33.30;21.73;;;3.90;99.90;;;;;;5006198;28;20036;-77
2022/01/11 16:52:40;;;;;;;32.33;22.40;;;3.90;99.90;;;;;;5023578;28;20052;-77
2022/01/11 16:55:08;;;;;;;30.37;21.47;;;3.90;99.90;;;;;;5005942;28;20450;-77
2022/01/11 16:57:34;;;;;;;33.07;21.13;;;3.90;99.90;;;;;;5013866;28;20052;-76
2022/01/11 17:00:00;;;;;;;32.27;22.13;;;3.90;99.90;;;;;;5043351;28;20037;-77
2022/01/11 17:02:26;;;;;;;32.70;22.83;;;3.90;99.90;;;;;;5043074;28;20053;-77
2022/01/11 17:04:53;;;;;;;35.57;23.73;;;3.80;99.90;;;;;;4990517;28;20354;-76
2022/01/11 17:07:19;;;;;;;34.53;21.63;;;3.80;99.90;;;;;;4997743;28;20037;-77
2022/01/11 17:09:46;;;;;;;31.83;21.70;;;3.80;99.90;;;;;;5015223;28;20042;-76
2022/01/11 17:12:13;;;;;;;35.43;23.93;;;3.80;99.90;;;;;;4967392;28;20415;-77
2022/01/11 17:14:41;;;;;;;31.87;22.43;;;3.80;99.90;;;;;;5022943;28;20060;-77
2022/01/11 17:17:07;;;;;;;32.70;21.90;;;3.80;99.90;;;;;;5021106;28;20584;-78
2022/01/11 17:19:33;;;;;;;31.50;22.27;;;3.80;99.90;;;;;;4991287;28;20057;-77
2022/01/11 17:22:00;;;;;;;31.83;22.67;;;3.80;99.90;;;;;;5009187;28;20426;-76
2022/01/11 17:24:29;;;;;;;33.60;23.60;;;3.80;99.90;;;;;;5013981;28;20056;-77
2022/01/11 17:26:55;;;;;;;33.57;23.40;;;3.80;99.90;;;;;;5016780;28;20042;-77
2022/01/11 17:29:21;;;;;;;36.13;23.37;;;3.80;99.90;;;;;;5021723;28;20578;-76
2022/01/11 17:31:48;;;;;;;37.03;24.97;;;3.80;99.90;;;;;;4999157;28;20049;-76
2022/01/11 17:34:20;;;;;;;36.47;25.83;;;3.80;99.90;;;;;;5011633;28;20099;-77
2022/01/11 17:36:47;;;;;;;33.63;23.80;;;3.80;99.90;;;;;;5000813;28;20075;-76
2022/01/11 17:39:13;;;;;;;35.83;24.47;;;3.70;99.90;;;;;;4987543;28;20124;-77
2022/01/11 17:41:38;;;;;;;36.70;24.60;;;3.70;99.90;;;;;;5024338;28;20076;-77
2022/01/11 17:44:06;;;;;;;37.03;25.23;;;3.70;99.90;;;;;;5007088;28;20068;-76
2022/01/11 17:46:33;;;;;;;33.27;24.60;;;3.70;99.90;;;;;;4990594;28;20044;-77
2022/01/11 17:48:59;;;;;;;34.73;23.77;;;3.70;99.90;;;;;;5022336;28;20065;-77
2022/01/11 17:51:28;;;;;;;33.80;23.77;;;3.80;99.90;;;;;;5005706;28;20044;-77
2022/01/11 17:53:55;;;;;;;35.43;24.53;;;3.70;99.90;;;;;;4994472;28;20036;-76
2022/01/11 17:56:20;;;;;;;33.17;24.33;;;3.70;99.90;;;;;;4994375;28;20052;-77
2022/01/11 17:58:47;;;;;;;33.73;23.40;;;3.70;99.90;;;;;;5009497;28;20050;-77
2022/01/11 18:01:16;;;;;;;35.07;24.03;;;3.70;99.90;;;;;;4990088;28;20356;-77
2022/01/11 18:03:41;;;;;;;34.93;25.33;;;3.70;99.90;;;;;;4981809;28;20037;-76
2022/01/11 18:06:07;;;;;;;35.13;24.67;;;3.70;99.90;;;;;;5008020;28;20107;-77
2022/01/11 18:08:38;;;;;;;37.27;26.53;;;3.70;99.90;;;;;;4992820;28;20057;-76
2022/01/11 18:11:52;;;;;;;39.13;27.60;;;3.70;99.90;;;;;;4991327;28;20042;-77
2022/01/11 18:14:21;;;;;;;35.70;24.17;;;3.70;99.90;;;;;;4997881;28;20542;-77
2022/01/11 18:16:50;;;;;;;36.97;25.67;;;3.70;99.90;;;;;;4993197;28;20036;-76
2022/01/11 18:19:16;;;;;;;37.97;27.23;;;3.70;99.90;;;;;;5000359;28;20057;-76
2022/01/11 18:21:42;;;;;;;36.90;26.07;;;3.70;99.90;;;;;;4990325;28;20048;-76
2022/01/11 18:24:08;;;;;;;38.23;27.03;;;3.70;99.90;;;;;;5010022;28;20057;-77
2022/01/11 18:26:34;;;;;;;39.20;27.67;;;3.70;99.90;;;;;;4990821;28;20629;-77
2022/01/11 18:29:00;;;;;;;39.50;28.73;;;3.70;99.90;;;;;;5004330;28;20076;-77
2022/01/11 18:31:26;;;;;;;44.10;31.93;;;3.70;99.90;;;;;;4966598;28;20495;-76
2022/01/11 18:33:53;;;;;;;40.73;28.60;;;3.70;99.90;;;;;;4991167;28;20056;-77
2022/01/11 18:36:20;;;;;;;42.10;32.90;;;3.70;99.90;;;;;;5009228;28;20065;-77
2022/01/11 18:38:46;;;;;;;35.73;26.17;;;3.70;99.90;;;;;;5007860;28;20064;-77
2022/01/11 18:41:12;;;;;;;37.67;25.57;;;3.70;99.90;;;;;;5007662;28;20079;-76
2022/01/11 18:43:38;;;;;;;40.50;27.93;;;3.70;99.90;;;;;;4994955;28;20096;-76
2022/01/11 18:46:04;;;;;;;39.43;27.90;;;3.70;99.90;;;;;;5009241;28;20103;-75
2022/01/11 18:48:46;;;;;;;38.03;26.70;;;3.70;99.90;;;;;;5004077;28;20095;-75
2022/01/11 18:51:12;;;;;;;42.47;30.37;;;3.70;99.90;;;;;;4986247;28;20044;-77
2022/01/11 18:53:39;;;;;;;40.93;31.93;;;3.70;99.90;;;;;;5012588;28;20044;-77
2022/01/11 18:56:05;;;;;;;38.13;26.57;;;3.80;99.90;;;;;;5027867;28;20037;-76
2022/01/11 18:58:31;;;;;;;40.67;27.57;;;3.80;99.90;;;;;;5013983;28;20036;-76
2022/01/11 19:01:00;;;;;;;40.97;28.23;;;3.70;99.90;;;;;;5007506;28;20046;-76
2022/01/11 19:03:27;;;;;;;38.60;26.23;;;3.70;99.90;;;;;;4981920;28;20044;-76
2022/01/11 19:05:57;;;;;;;38.13;27.73;;;3.70;99.90;;;;;;5009597;28;20131;-76
2022/01/11 19:08:27;;;;;;;32.90;25.43;;;3.70;99.90;;;;;;4993368;28;20431;-77
2022/01/11 19:10:53;;;;;;;40.37;27.97;;;3.70;99.90;;;;;;5009157;28;20116;-76
2022/01/11 19:13:19;;;;;;;37.13;26.20;;;3.70;99.90;;;;;;5010099;28;20506;-76
2022/01/11 19:15:45;;;;;;;39.60;27.93;;;3.70;99.90;;;;;;4996723;28;20131;-76
2022/01/11 19:18:13;;;;;;;42.17;30.43;;;3.70;99.90;;;;;;5009465;28;20049;-76
2022/01/11 19:20:39;;;;;;;40.77;28.37;;;3.70;99.90;;;;;;5011959;28;20544;-76
2022/01/11 19:23:05;;;;;;;40.50;29.47;;;3.60;99.90;;;;;;4992142;28;20041;-76
2022/01/11 19:25:31;;;;;;;39.50;29.03;;;3.60;99.90;;;;;;5010891;28;20067;-76
2022/01/11 19:28:01;;;;;;;43.57;30.03;;;3.70;99.90;;;;;;5004775;28;20514;-76
2022/01/11 19:30:27;;;;;;;39.55;29.75;;;3.70;99.90;;;;;;5009085;28;20048;-76
2022/01/11 19:32:53;;;;;;;43.57;28.90;;;3.60;99.90;;;;;;4992000;28;20424;-75
2022/01/11 19:35:19;;;;;;;40.57;28.00;;;3.60;99.90;;;;;;5008144;28;20045;-75
2022/01/11 19:37:46;;;;;;;44.87;30.37;;;3.60;99.90;;;;;;5005406;28;20406;-75
2022/01/11 19:40:12;;;;;;;38.23;29.43;;;3.60;99.90;;;;;;4987641;28;20037;-76
2022/01/11 19:42:41;;;;;;;41.87;30.13;;;3.60;99.90;;;;;;4989755;28;20652;-76
2022/01/11 19:45:08;;;;;;;43.97;30.43;;;3.60;99.90;;;;;;5016458;28;20048;-75
2022/01/11 19:47:37;;;;;;;42.20;29.40;;;3.60;99.90;;;;;;4993006;28;20139;-76
2022/01/11 19:50:12;;;;;;;43.43;29.57;;;3.60;99.90;;;;;;4984419;28;20045;-75
2022/01/11 19:52:39;;;;;;;44.57;32.00;;;3.60;99.90;;;;;;5007041;28;20065;-75
2022/01/11 19:55:08;;;;;;;48.87;34.03;;;3.60;99.90;;;;;;4995929;28;20421;-76
2022/01/11 19:57:35;;;;;;;64.67;48.07;;;3.60;99.90;;;;;;5006112;28;20080;-76
2022/01/11 20:00:01;;;;;;;48.70;33.83;;;3.60;99.90;;;;;;4961507;28;20049;-75
2022/01/11 20:02:27;;;;;;;47.23;32.53;;;3.60;99.90;;;;;;5008500;28;20526;-75
2022/01/11 20:04:53;;;;;;;50.37;33.60;;;3.50;99.90;;;;;;5023553;28;20120;-74
2022/01/11 20:07:19;;;;;;;48.17;32.83;;;3.50;99.90;;;;;;5012225;28;20502;-75
2022/01/11 20:09:45;;;;;;;46.93;33.00;;;3.50;99.90;;;;;;4995430;28;20045;-75
2022/01/11 20:12:11;;;;;;;46.37;32.97;;;3.40;99.90;;;;;;5006634;28;20041;-75
2022/01/11 20:14:37;;;;;;;54.97;34.90;;;3.40;99.90;;;;;;5024679;28;20585;-74
2022/01/11 20:17:03;;;;;;;51.53;33.70;;;3.40;99.90;;;;;;5027395;28;20059;-74
2022/01/11 20:19:32;;;;;;;52.63;34.40;;;3.50;99.90;;;;;;5013354;28;20044;-75
2022/01/11 20:22:08;;;;;;;50.60;35.77;;;3.40;99.90;;;;;;5013347;28;20044;-75
2022/01/11 20:27:42;;;;;;;52.80;35.33;;;3.30;99.90;;;;;;5018983;28;20107;-75
2022/01/11 20:30:11;;;;;;;57.33;36.60;;;3.40;99.90;;;;;;5011299;28;20049;-74
2022/01/11 20:32:39;;;;;;;56.07;35.87;;;3.30;99.90;;;;;;4993958;28;20045;-75
2022/01/11 20:35:06;;;;;;;54.83;36.13;;;3.30;99.90;;;;;;4992558;28;20043;-75
2022/01/11 20:37:33;;;;;;;63.00;39.60;;;3.30;99.90;;;;;;5027641;28;20051;-74
2022/01/11 20:40:00;;;;;;;62.20;38.10;;;3.30;99.90;;;;;;5010195;28;20071;-75
2022/01/11 20:42:33;;;;;;;54.10;36.10;;;3.30;99.90;;;;;;5010304;28;20052;-75
2022/01/11 20:45:00;;;;;;;63.80;39.17;;;3.30;99.90;;;;;;5010602;28;20136;-76
2022/01/11 20:47:31;;;;;;;62.07;37.97;;;3.30;99.90;;;;;;4999982;28;20051;-75
2022/01/11 20:50:30;;;;;;;66.27;40.87;;;3.30;99.90;;;;;;5044361;28;20136;-75
2022/01/11 20:53:00;;;;;;;61.33;37.95;;;3.30;99.90;;;;;;5020028;28;20526;-75
2022/01/11 20:55:26;;;;;;;66.63;41.93;;;3.30;99.90;;;;;;5046567;28;20048;-75
2022/01/11 20:57:53;;;;;;;65.00;40.17;;;3.30;99.90;;;;;;5025101;28;20041;-74
2022/01/11 21:00:25;;;;;;;80.73;45.70;;;3.30;99.90;;;;;;4994417;28;20040;-75
2022/01/11 21:02:51;;;;;;;67.43;41.93;;;3.30;99.90;;;;;;5021586;28;20055;-75
2022/01/11 21:05:17;;;;;;;91.53;48.90;;;3.30;99.90;;;;;;5041497;28;20052;-75
2022/01/11 21:07:46;;;;;;;92.03;49.80;;;3.30;99.90;;;;;;4990174;28;20439;-74
2022/01/11 21:10:13;;;;;;;90.10;50.10;;;3.30;99.90;;;;;;5001064;28;20098;-75
2022/01/11 21:12:40;;;;;;;70.90;43.00;;;3.30;99.90;;;;;;5018190;28;20045;-74
2022/01/11 21:15:10;;;;;;;82.13;49.10;;;3.30;99.90;;;;;;5002555;28;20348;-75
2022/01/11 21:20:20;;;;;;;92.80;50.77;;;3.30;99.90;;;;;;5013971;28;20244;-75
2022/01/11 21:22:49;;;;;;;70.70;44.83;;;3.30;99.90;;;;;;5009701;28;20088;-75
2022/01/11 21:25:21;;;;;;;90.43;50.67;;;3.20;99.90;;;;;;4993547;28;20415;-75
2022/01/11 21:27:47;;;;;;;80.07;48.40;;;3.30;99.90;;;;;;5020775;28;20708;-74
2022/01/11 21:30:13;;;;;;;110.90;55.87;;;3.30;99.90;;;;;;4992705;28;20095;-75
2022/01/11 21:32:39;;;;;;;93.90;51.37;;;3.30;99.90;;;;;;5020943;28;20037;-75
2022/01/11 21:35:06;;;;;;;95.23;53.17;;;3.30;99.90;;;;;;5020711;28;20041;-75
2022/01/11 21:37:32;;;;;;;97.77;53.23;;;3.30;99.90;;;;;;5016317;28;20129;-75
2022/01/11 21:39:58;;;;;;;104.03;55.87;;;3.30;99.90;;;;;;5008112;28;20113;-75
2022/01/11 21:42:25;;;;;;;75.33;49.63;;;3.30;99.90;;;;;;5009270;28;20041;-75
2022/01/11 21:44:54;;;;;;;101.90;57.83;;;3.30;99.90;;;;;;4995489;28;20057;-75
2022/01/11 21:47:20;;;;;;;90.37;55.30;;;3.30;99.90;;;;;;5001420;28;20053;-75
2022/01/11 21:49:47;;;;;;;101.47;57.07;;;3.30;99.90;;;;;;5012292;28;20714;-75
2022/01/11 21:52:17;;;;;;;74.60;48.70;;;3.30;99.90;;;;;;5013545;28;20125;-75
2022/01/11 21:54:45;;;;;;;119.90;60.27;;;3.20;99.90;;;;;;4990333;28;20045;-75
2022/01/11 21:57:11;;;;;;;94.33;55.57;;;3.30;99.90;;;;;;5022006;28;20050;-75
2022/01/11 21:59:38;;;;;;;129.67;65.87;;;3.30;99.90;;;;;;5017605;28;20522;-75
2022/01/11 22:02:05;;;;;;;108.30;60.27;;;3.30;99.90;;;;;;4991587;28;20038;-75
2022/01/11 22:04:31;;;;;;;103.37;57.27;;;3.30;99.90;;;;;;4986795;28;20054;-75
2022/01/11 22:06:58;;;;;;;90.87;56.00;;;3.30;99.90;;;;;;5021074;28;20037;-75
2022/01/11 22:09:23;;;;;;;98.77;59.93;;;3.30;99.90;;;;;;5006259;28;20057;-76
2022/01/11 22:11:49;;;;;;;106.67;61.17;;;3.30;99.90;;;;;;5004524;28;20765;-75
2022/01/11 22:19:22;;;;;;;117.83;66.80;;;3.40;99.90;;;;;;5009018;28;20132;-75
2022/01/11 22:21:49;;;;;;;119.60;66.80;;;3.40;99.90;;;;;;5003897;28;20635;-74
2022/01/11 22:24:15;;;;;;;128.30;69.50;;;3.40;99.90;;;;;;5009851;28;20037;-75
2022/01/11 22:26:41;;;;;;;132.87;69.43;;;3.40;99.90;;;;;;5011821;28;20044;-75
2022/01/11 22:29:06;;;;;;;122.63;66.10;;;3.40;99.90;;;;;;5004729;28;20048;-74
2022/01/11 22:31:33;;;;;;;106.77;63.77;;;3.40;99.90;;;;;;5017534;28;20716;-74
2022/01/11 22:33:58;;;;;;;126.70;70.70;;;3.40;99.90;;;;;;5000391;28;20049;-75
2022/01/11 22:36:24;;;;;;;121.60;68.50;;;3.40;99.90;;;;;;5024675;28;20396;-75
2022/01/11 22:38:50;;;;;;;129.00;69.00;;;3.40;99.90;;;;;;4979195;28;20046;-75
2022/01/11 22:41:20;;;;;;;129.93;70.20;;;3.40;99.90;;;;;;5006399;28;20064;-75
2022/01/11 22:43:46;;;;;;;96.70;61.33;;;3.40;99.90;;;;;;5002709;28;20045;-75
2022/01/11 22:46:13;;;;;;;120.27;67.43;;;3.40;99.90;;;;;;5010369;28;20330;-75
2022/01/11 22:48:40;;;;;;;104.03;63.03;;;3.40;99.90;;;;;;5021945;28;20196;-75
2022/01/11 22:51:05;;;;;;;120.37;67.53;;;3.40;99.90;;;;;;5022590;28;20037;-75
2022/01/11 22:53:31;;;;;;;116.47;68.57;;;3.50;99.90;;;;;;4992603;28;20088;-76
2022/01/11 22:55:59;;;;;;;93.43;60.57;;;3.60;99.90;;;;;;4991195;28;20060;-75
2022/01/11 22:58:25;;;;;;;104.90;64.00;;;3.40;99.90;;;;;;4987722;28;20048;-75
2022/01/11 23:00:54;;;;;;;118.97;69.03;;;3.50;99.90;;;;;;5012142;28;20621;-75
2022/01/11 23:03:22;;;;;;;121.37;67.63;;;3.40;99.90;;;;;;5019298;28;20627;-75
2022/01/11 23:05:48;;;;;;;122.00;69.23;;;3.40;99.90;;;;;;4995117;28;20049;-75
2022/01/11 23:08:14;;;;;;;124.70;69.83;;;3.40;99.90;;;;;;5022482;28;20083;-75
2022/01/11 23:10:43;;;;;;;122.93;68.00;;;3.40;99.90;;;;;;4990260;28;20046;-75
2022/01/11 23:15:46;;;;;;;134.47;70.23;;;3.50;99.90;;;;;;5001648;28;20103;-75
2022/01/11 23:18:14;;;;;;;140.90;73.20;;;3.40;99.90;;;;;;5021450;28;20100;-75
2022/01/11 23:20:40;;;;;;;141.07;74.20;;;3.50;99.90;;;;;;5018601;28;20045;-75
2022/01/11 23:23:06;;;;;;;155.03;75.67;;;3.50;99.90;;;;;;5024488;28;20570;-75
2022/01/11 23:25:33;;;;;;;160.70;75.23;;;3.50;99.90;;;;;;5005712;28;20042;-75
2022/01/11 23:27:59;;;;;;;168.37;80.60;;;3.50;99.90;;;;;;5024119;28;20045;-75
2022/01/11 23:30:25;;;;;;;145.43;75.13;;;3.50;99.90;;;;;;5041916;28;20500;-75
2022/01/11 23:32:58;;;;;;;168.57;77.83;;;3.50;99.90;;;;;;5007465;28;20052;-75
2022/01/11 23:35:24;;;;;;;172.43;81.03;;;3.50;99.90;;;;;;5028212;28;20049;-75
2022/01/11 23:37:55;;;;;;;163.40;80.13;;;3.50;99.90;;;;;;5009786;28;20045;-75
2022/01/11 23:40:48;;;;;;;;;;;3.50;99.90;;;;;;5007793;28;20045;-74
2022/01/11 23:48:35;;;;;;;216.67;91.47;;;3.60;99.90;;;;;;5024189;28;20107;-75
2022/01/11 23:51:01;;;;;;;212.57;87.57;;;3.50;99.90;;;;;;5008166;28;20499;-75
2022/01/11 23:53:30;;;;;;;211.67;88.10;;;3.50;99.90;;;;;;5027656;28;20040;-75
2022/01/11 23:56:00;;;;;;;221.73;90.10;;;3.50;99.90;;;;;;5010151;28;20037;-75
2022/01/11 23:58:29;;;;;;;258.00;97.63;;;3.50;99.90;;;;;;5043163;28;20045;-75
